sensor_id;sensor_type;location;lat;lon;timestamp;pressure;altitude;pressure_sealevel;temperature;humidity
64616;BME280;51027;42.162;24.754;2023-05-07T00:01:46;100035.75;;;14.41;100.00
64616;BME280;51027;42.162;24.754;2023-05-07T00:04:12;100035.31;;;14.51;100.00
64616;BME280;51027;42.162;24.754;2023-05-07T00:06:38;100019.50;;;14.49;100.00
64616;BME280;51027;42.162;24.754;2023-05-07T00:09:05;100009.31;;;14.40;100.00
64616;BME280;51027;42.162;24.754;2023-05-07T00:11:30;100032.59;;;14.52;100.00
64616;BME280;51027;42.162;24.754;2023-05-07T00:13:56;100007.19;;;14.48;100.00
64616;BME280;51027;42.162;24.754;2023-05-07T00:16:21;100016.53;;;14.55;100.00
64616;BME280;51027;42.162;24.754;2023-05-07T00:18:47;100033.22;;;14.57;100.00
64616;BME280;51027;42.162;24.754;2023-05-07T00:21:13;100016.84;;;14.49;100.00
64616;BME280;51027;42.162;24.754;2023-05-07T00:23:38;100027.91;;;14.57;100.00
64616;BME280;51027;42.162;24.754;2023-05-07T00:26:04;100026.13;;;14.58;100.00
64616;BME280;51027;42.162;24.754;2023-05-07T00:28:29;100019.44;;;14.68;100.00
64616;BME280;51027;42.162;24.754;2023-05-07T00:30:55;100009.06;;;14.63;100.00
64616;BME280;51027;42.162;24.754;2023-05-07T00:33:21;100020.19;;;14.70;100.00
64616;BME280;51027;42.162;24.754;2023-05-07T00:35:47;100017.03;;;14.63;100.00
64616;BME280;51027;42.162;24.754;2023-05-07T00:38:13;100021.47;;;14.63;100.00
64616;BME280;51027;42.162;24.754;2023-05-07T00:40:39;99999.22;;;14.48;100.00
64616;BME280;51027;42.162;24.754;2023-05-07T00:43:04;100026.28;;;14.55;100.00
64616;BME280;51027;42.162;24.754;2023-05-07T00:45:29;100030.00;;;14.51;100.00
64616;BME280;51027;42.162;24.754;2023-05-07T00:48:00;100027.69;;;14.45;100.00
64616;BME280;51027;42.162;24.754;2023-05-07T00:50:30;100023.56;;;14.37;100.00
64616;BME280;51027;42.162;24.754;2023-05-07T00:52:55;100024.84;;;14.30;100.00
64616;BME280;51027;42.162;24.754;2023-05-07T00:55:22;100025.28;;;14.21;100.00
64616;BME280;51027;42.162;24.754;2023-05-07T00:57:49;100015.25;;;14.09;100.00
64616;BME280;51027;42.162;24.754;2023-05-07T01:00:15;100028.22;;;14.15;100.00
64616;BME280;51027;42.162;24.754;2023-05-07T01:02:41;100025.22;;;14.04;100.00
64616;BME280;51027;42.162;24.754;2023-05-07T01:05:09;100021.81;;;14.02;100.00
64616;BME280;51027;42.162;24.754;2023-05-07T01:07:36;100036.59;;;14.06;100.00
64616;BME280;51027;42.162;24.754;2023-05-07T01:10:04;100032.94;;;14.08;100.00
64616;BME280;51027;42.162;24.754;2023-05-07T01:12:31;100040.25;;;14.03;100.00
64616;BME280;51027;42.162;24.754;2023-05-07T01:14:58;100032.59;;;13.97;100.00
64616;BME280;51027;42.162;24.754;2023-05-07T01:17:23;99995.94;;;13.71;100.00
64616;BME280;51027;42.162;24.754;2023-05-07T01:19:49;100023.38;;;13.87;100.00
64616;BME280;51027;42.162;24.754;2023-05-07T01:22:16;100015.81;;;13.79;100.00
64616;BME280;51027;42.162;24.754;2023-05-07T01:24:46;100023.38;;;13.87;100.00
64616;BME280;51027;42.162;24.754;2023-05-07T01:27:11;100028.25;;;13.96;100.00
64616;BME280;51027;42.162;24.754;2023-05-07T01:29:36;100022.31;;;13.91;100.00
64616;BME280;51027;42.162;24.754;2023-05-07T01:32:02;100019.50;;;13.94;100.00
64616;BME280;51027;42.162;24.754;2023-05-07T01:34:31;99988.78;;;13.73;100.00
64616;BME280;51027;42.162;24.754;2023-05-07T01:36:58;100021.06;;;13.98;100.00
64616;BME280;51027;42.162;24.754;2023-05-07T01:39:25;100027.47;;;13.94;100.00
64616;BME280;51027;42.162;24.754;2023-05-07T01:41:51;100019.75;;;13.90;100.00
64616;BME280;51027;42.162;24.754;2023-05-07T01:44:18;100020.53;;;13.92;100.00
64616;BME280;51027;42.162;24.754;2023-05-07T01:46:44;100010.13;;;13.87;100.00
64616;BME280;51027;42.162;24.754;2023-05-07T01:49:10;100026.03;;;13.87;100.00
64616;BME280;51027;42.162;24.754;2023-05-07T01:51:36;100010.44;;;13.81;100.00
64616;BME280;51027;42.162;24.754;2023-05-07T01:54:01;100012.16;;;13.82;100.00
64616;BME280;51027;42.162;24.754;2023-05-07T01:56:26;100020.09;;;13.82;100.00
64616;BME280;51027;42.162;24.754;2023-05-07T01:58:52;100016.25;;;13.70;100.00
64616;BME280;51027;42.162;24.754;2023-05-07T02:01:17;100006.00;;;13.63;100.00
64616;BME280;51027;42.162;24.754;2023-05-07T02:03:43;100009.44;;;13.83;100.00
64616;BME280;51027;42.162;24.754;2023-05-07T02:06:09;100013.66;;;13.88;100.00
64616;BME280;51027;42.162;24.754;2023-05-07T02:08:35;100014.56;;;13.87;100.00
64616;BME280;51027;42.162;24.754;2023-05-07T02:11:00;100016.78;;;13.96;100.00
64616;BME280;51027;42.162;24.754;2023-05-07T02:13:31;100026.44;;;13.97;100.00
64616;BME280;51027;42.162;24.754;2023-05-07T02:15:57;100020.38;;;13.76;100.00
64616;BME280;51027;42.162;24.754;2023-05-07T02:18:23;100025.53;;;13.79;100.00
64616;BME280;51027;42.162;24.754;2023-05-07T02:20:48;99997.38;;;13.59;100.00
64616;BME280;51027;42.162;24.754;2023-05-07T02:23:14;99995.78;;;13.55;100.00
64616;BME280;51027;42.162;24.754;2023-05-07T02:25:39;100015.31;;;13.71;100.00
64616;BME280;51027;42.162;24.754;2023-05-07T02:28:04;100001.41;;;13.66;100.00
64616;BME280;51027;42.162;24.754;2023-05-07T02:30:30;100008.94;;;13.75;100.00
64616;BME280;51027;42.162;24.754;2023-05-07T02:32:55;99982.03;;;13.66;100.00
64616;BME280;51027;42.162;24.754;2023-05-07T02:35:21;99997.22;;;13.81;100.00
64616;BME280;51027;42.162;24.754;2023-05-07T02:37:46;100010.66;;;13.76;100.00
64616;BME280;51027;42.162;24.754;2023-05-07T02:40:12;100008.66;;;13.81;100.00
64616;BME280;51027;42.162;24.754;2023-05-07T02:42:37;99962.88;;;13.42;100.00
64616;BME280;51027;42.162;24.754;2023-05-07T02:45:03;100008.06;;;13.75;100.00
64616;BME280;51027;42.162;24.754;2023-05-07T02:47:28;100004.66;;;13.73;100.00
64616;BME280;51027;42.162;24.754;2023-05-07T02:49:54;99999.94;;;13.61;100.00
64616;BME280;51027;42.162;24.754;2023-05-07T02:52:21;99992.00;;;13.61;100.00
64616;BME280;51027;42.162;24.754;2023-05-07T02:54:47;99998.94;;;13.63;100.00
64616;BME280;51027;42.162;24.754;2023-05-07T02:57:12;99999.50;;;13.70;100.00
64616;BME280;51027;42.162;24.754;2023-05-07T02:59:37;100003.22;;;13.66;100.00
64616;BME280;51027;42.162;24.754;2023-05-07T03:02:03;99995.44;;;13.63;100.00
64616;BME280;51027;42.162;24.754;2023-05-07T03:04:28;100002.66;;;13.59;100.00
64616;BME280;51027;42.162;24.754;2023-05-07T03:06:54;99995.50;;;13.61;100.00
64616;BME280;51027;42.162;24.754;2023-05-07T03:09:19;99996.34;;;13.62;100.00
64616;BME280;51027;42.162;24.754;2023-05-07T03:11:45;99954.44;;;13.34;100.00
64616;BME280;51027;42.162;24.754;2023-05-07T03:14:11;99988.56;;;13.40;100.00
64616;BME280;51027;42.162;24.754;2023-05-07T03:16:36;99996.63;;;13.37;100.00
64616;BME280;51027;42.162;24.754;2023-05-07T03:19:01;99994.19;;;13.32;100.00
64616;BME280;51027;42.162;24.754;2023-05-07T03:21:27;99979.81;;;13.19;100.00
64616;BME280;51027;42.162;24.754;2023-05-07T03:23:53;100001.63;;;13.24;100.00
64616;BME280;51027;42.162;24.754;2023-05-07T03:26:18;99974.84;;;13.11;100.00
64616;BME280;51027;42.162;24.754;2023-05-07T03:28:43;100003.31;;;13.25;100.00
64616;BME280;51027;42.162;24.754;2023-05-07T03:31:09;100003.84;;;13.33;100.00
64616;BME280;51027;42.162;24.754;2023-05-07T03:33:34;100006.22;;;13.39;100.00
64616;BME280;51027;42.162;24.754;2023-05-07T03:36:00;99988.84;;;13.34;100.00
64616;BME280;51027;42.162;24.754;2023-05-07T03:38:26;99987.13;;;13.33;100.00
64616;BME280;51027;42.162;24.754;2023-05-07T03:40:51;100008.22;;;13.53;100.00
64616;BME280;51027;42.162;24.754;2023-05-07T03:43:17;100008.13;;;13.36;100.00
64616;BME280;51027;42.162;24.754;2023-05-07T03:45:42;100011.78;;;13.33;100.00
64616;BME280;51027;42.162;24.754;2023-05-07T03:48:08;100009.66;;;13.41;100.00
64616;BME280;51027;42.162;24.754;2023-05-07T03:50:33;100001.91;;;13.37;100.00
64616;BME280;51027;42.162;24.754;2023-05-07T03:52:58;100007.50;;;13.10;100.00
64616;BME280;51027;42.162;24.754;2023-05-07T03:55:24;100017.22;;;13.30;100.00
64616;BME280;51027;42.162;24.754;2023-05-07T03:57:50;99995.41;;;13.25;100.00
64616;BME280;51027;42.162;24.754;2023-05-07T04:00:16;100017.25;;;13.49;100.00
64616;BME280;51027;42.162;24.754;2023-05-07T04:02:41;100015.03;;;13.40;100.00
64616;BME280;51027;42.162;24.754;2023-05-07T04:05:07;100001.13;;;13.35;100.00
64616;BME280;51027;42.162;24.754;2023-05-07T04:07:33;100016.25;;;13.51;100.00
64616;BME280;51027;42.162;24.754;2023-05-07T04:09:58;100012.25;;;13.62;100.00
64616;BME280;51027;42.162;24.754;2023-05-07T04:12:23;100020.69;;;13.70;100.00
64616;BME280;51027;42.162;24.754;2023-05-07T04:14:49;100014.06;;;13.78;100.00
64616;BME280;51027;42.162;24.754;2023-05-07T04:17:14;100012.38;;;13.77;100.00
64616;BME280;51027;42.162;24.754;2023-05-07T04:19:40;100015.22;;;13.92;100.00
64616;BME280;51027;42.162;24.754;2023-05-07T04:22:10;100005.25;;;13.97;100.00
64616;BME280;51027;42.162;24.754;2023-05-07T04:24:35;100018.38;;;14.00;100.00
64616;BME280;51027;42.162;24.754;2023-05-07T04:27:01;100025.06;;;14.07;100.00
64616;BME280;51027;42.162;24.754;2023-05-07T04:29:26;100022.44;;;14.07;100.00
64616;BME280;51027;42.162;24.754;2023-05-07T04:31:52;100018.41;;;14.17;100.00
64616;BME280;51027;42.162;24.754;2023-05-07T04:34:17;100015.22;;;14.10;100.00
64616;BME280;51027;42.162;24.754;2023-05-07T04:36:43;100019.59;;;14.29;100.00
64616;BME280;51027;42.162;24.754;2023-05-07T04:39:08;100023.34;;;14.25;100.00
64616;BME280;51027;42.162;24.754;2023-05-07T04:41:36;100006.16;;;14.15;100.00
64616;BME280;51027;42.162;24.754;2023-05-07T04:44:01;100028.97;;;13.81;100.00
64616;BME280;51027;42.162;24.754;2023-05-07T04:46:30;100024.97;;;13.53;100.00
64616;BME280;51027;42.162;24.754;2023-05-07T04:48:55;100023.31;;;13.51;100.00
64616;BME280;51027;42.162;24.754;2023-05-07T04:51:20;100013.22;;;13.97;100.00
64616;BME280;51027;42.162;24.754;2023-05-07T04:53:46;100003.88;;;13.71;100.00
64616;BME280;51027;42.162;24.754;2023-05-07T04:56:11;100020.09;;;14.01;100.00
64616;BME280;51027;42.162;24.754;2023-05-07T04:58:37;100021.03;;;14.17;100.00
64616;BME280;51027;42.162;24.754;2023-05-07T05:01:02;100033.94;;;14.25;100.00
64616;BME280;51027;42.162;24.754;2023-05-07T05:03:27;100028.72;;;14.23;100.00
64616;BME280;51027;42.162;24.754;2023-05-07T05:05:53;100016.16;;;14.27;100.00
64616;BME280;51027;42.162;24.754;2023-05-07T05:08:19;100028.31;;;14.67;100.00
64616;BME280;51027;42.162;24.754;2023-05-07T05:10:44;100036.75;;;14.75;100.00
64616;BME280;51027;42.162;24.754;2023-05-07T05:13:10;100033.84;;;14.80;100.00
64616;BME280;51027;42.162;24.754;2023-05-07T05:15:38;100028.94;;;14.55;100.00
64616;BME280;51027;42.162;24.754;2023-05-07T05:18:03;100030.25;;;14.81;100.00
64616;BME280;51027;42.162;24.754;2023-05-07T05:20:29;100037.13;;;15.02;100.00
64616;BME280;51027;42.162;24.754;2023-05-07T05:22:54;100039.44;;;15.25;100.00
64616;BME280;51027;42.162;24.754;2023-05-07T05:25:20;100036.78;;;15.08;100.00
64616;BME280;51027;42.162;24.754;2023-05-07T05:27:45;100043.34;;;15.01;100.00
64616;BME280;51027;42.162;24.754;2023-05-07T05:30:11;100046.84;;;15.02;100.00
64616;BME280;51027;42.162;24.754;2023-05-07T05:32:37;100042.09;;;15.08;100.00
64616;BME280;51027;42.162;24.754;2023-05-07T05:35:02;100038.47;;;14.93;100.00
64616;BME280;51027;42.162;24.754;2023-05-07T05:37:28;100055.81;;;15.34;100.00
64616;BME280;51027;42.162;24.754;2023-05-07T05:39:55;100049.28;;;15.56;100.00
64616;BME280;51027;42.162;24.754;2023-05-07T05:42:21;100053.25;;;15.81;100.00
64616;BME280;51027;42.162;24.754;2023-05-07T05:44:46;100059.25;;;15.36;100.00
64616;BME280;51027;42.162;24.754;2023-05-07T05:47:11;100052.13;;;15.69;100.00
64616;BME280;51027;42.162;24.754;2023-05-07T05:49:37;100032.53;;;15.72;100.00
64616;BME280;51027;42.162;24.754;2023-05-07T05:52:02;100061.34;;;16.11;100.00
64616;BME280;51027;42.162;24.754;2023-05-07T05:54:28;100051.06;;;16.05;100.00
64616;BME280;51027;42.162;24.754;2023-05-07T05:56:53;100071.34;;;16.22;98.65
64616;BME280;51027;42.162;24.754;2023-05-07T05:59:19;100046.09;;;15.99;98.30
64616;BME280;51027;42.162;24.754;2023-05-07T06:01:44;100058.06;;;16.22;99.64
64616;BME280;51027;42.162;24.754;2023-05-07T06:04:10;100059.69;;;16.40;97.55
64616;BME280;51027;42.162;24.754;2023-05-07T06:06:35;100056.06;;;16.57;96.19
64616;BME280;51027;42.162;24.754;2023-05-07T06:09:01;100056.75;;;16.45;94.31
64616;BME280;51027;42.162;24.754;2023-05-07T06:11:26;100060.91;;;16.64;95.36
64616;BME280;51027;42.162;24.754;2023-05-07T06:13:51;100068.16;;;16.92;93.20
64616;BME280;51027;42.162;24.754;2023-05-07T06:16:17;100067.38;;;16.76;92.83
64616;BME280;51027;42.162;24.754;2023-05-07T06:18:42;100064.75;;;16.90;92.01
64616;BME280;51027;42.162;24.754;2023-05-07T06:21:07;100044.88;;;16.96;89.76
64616;BME280;51027;42.162;24.754;2023-05-07T06:23:33;100062.19;;;16.89;89.88
64616;BME280;51027;42.162;24.754;2023-05-07T06:25:58;100062.00;;;17.06;88.20
64616;BME280;51027;42.162;24.754;2023-05-07T06:28:24;100046.28;;;17.32;87.13
64616;BME280;51027;42.162;24.754;2023-05-07T06:30:49;100047.13;;;17.32;87.12
64616;BME280;51027;42.162;24.754;2023-05-07T06:33:15;100064.75;;;17.49;86.36
64616;BME280;51027;42.162;24.754;2023-05-07T06:35:41;100029.34;;;17.18;85.22
64616;BME280;51027;42.162;24.754;2023-05-07T06:38:06;100031.91;;;17.34;85.88
64616;BME280;51027;42.162;24.754;2023-05-07T06:40:31;100027.56;;;17.47;85.95
64616;BME280;51027;42.162;24.754;2023-05-07T06:42:57;100049.06;;;17.73;85.34
64616;BME280;51027;42.162;24.754;2023-05-07T06:45:22;100037.06;;;17.51;84.96
64616;BME280;51027;42.162;24.754;2023-05-07T06:47:48;100058.31;;;17.81;84.03
64616;BME280;51027;42.162;24.754;2023-05-07T06:50:14;100063.69;;;17.94;83.53
64616;BME280;51027;42.162;24.754;2023-05-07T06:52:41;100054.09;;;17.92;83.28
64616;BME280;51027;42.162;24.754;2023-05-07T06:55:08;100064.72;;;18.20;82.81
64616;BME280;51027;42.162;24.754;2023-05-07T06:57:33;100055.84;;;18.20;81.79
64616;BME280;51027;42.162;24.754;2023-05-07T06:59:58;100057.16;;;18.27;82.60
64616;BME280;51027;42.162;24.754;2023-05-07T07:02:24;100065.47;;;18.22;80.74
64616;BME280;51027;42.162;24.754;2023-05-07T07:04:49;100048.19;;;18.28;80.85
64616;BME280;51027;42.162;24.754;2023-05-07T07:07:15;100057.44;;;18.49;79.49
64616;BME280;51027;42.162;24.754;2023-05-07T07:09:40;100045.41;;;18.70;80.47
64616;BME280;51027;42.162;24.754;2023-05-07T07:12:05;100055.44;;;18.80;79.71
64616;BME280;51027;42.162;24.754;2023-05-07T07:14:31;100061.75;;;18.52;78.48
64616;BME280;51027;42.162;24.754;2023-05-07T07:16:56;100062.19;;;18.85;77.33
64616;BME280;51027;42.162;24.754;2023-05-07T07:19:22;100058.88;;;18.94;78.69
64616;BME280;51027;42.162;24.754;2023-05-07T07:21:47;100056.84;;;18.98;76.79
64616;BME280;51027;42.162;24.754;2023-05-07T07:24:13;100043.63;;;18.96;76.88
64616;BME280;51027;42.162;24.754;2023-05-07T07:26:44;100072.69;;;19.26;75.38
64616;BME280;51027;42.162;24.754;2023-05-07T07:29:09;100053.69;;;19.18;75.00
64616;BME280;51027;42.162;24.754;2023-05-07T07:31:35;100072.59;;;19.41;75.27
64616;BME280;51027;42.162;24.754;2023-05-07T07:34:00;100077.09;;;19.53;74.25
64616;BME280;51027;42.162;24.754;2023-05-07T07:36:25;100071.50;;;19.18;75.01
64616;BME280;51027;42.162;24.754;2023-05-07T07:38:52;100074.41;;;19.40;74.50
64616;BME280;51027;42.162;24.754;2023-05-07T07:41:18;100060.00;;;19.43;74.34
64616;BME280;51027;42.162;24.754;2023-05-07T07:43:43;100079.34;;;19.84;72.55
64616;BME280;51027;42.162;24.754;2023-05-07T07:46:08;100075.63;;;20.11;71.71
64616;BME280;51027;42.162;24.754;2023-05-07T07:48:34;100044.06;;;19.79;71.51
64616;BME280;51027;42.162;24.754;2023-05-07T07:50:59;100075.44;;;20.14;71.90
64616;BME280;51027;42.162;24.754;2023-05-07T07:53:25;100066.31;;;20.40;69.75
64616;BME280;51027;42.162;24.754;2023-05-07T07:55:50;100073.28;;;20.56;70.69
64616;BME280;51027;42.162;24.754;2023-05-07T07:58:16;100066.53;;;20.50;69.79
64616;BME280;51027;42.162;24.754;2023-05-07T08:00:41;100070.22;;;20.60;69.75
64616;BME280;51027;42.162;24.754;2023-05-07T08:03:09;100078.25;;;20.60;69.15
64616;BME280;51027;42.162;24.754;2023-05-07T08:05:35;100073.19;;;20.68;70.17
64616;BME280;51027;42.162;24.754;2023-05-07T08:08:01;100064.34;;;20.79;69.41
64616;BME280;51027;42.162;24.754;2023-05-07T08:10:26;100076.25;;;21.10;68.91
64616;BME280;51027;42.162;24.754;2023-05-07T08:12:52;100069.22;;;21.20;67.53
64616;BME280;51027;42.162;24.754;2023-05-07T08:15:17;100067.66;;;21.18;68.60
64616;BME280;51027;42.162;24.754;2023-05-07T08:17:43;100059.91;;;21.37;67.06
64616;BME280;51027;42.162;24.754;2023-05-07T08:20:09;100065.03;;;21.51;67.23
64616;BME280;51027;42.162;24.754;2023-05-07T08:22:38;100055.69;;;21.57;65.81
64616;BME280;51027;42.162;24.754;2023-05-07T08:25:03;100029.84;;;21.67;65.63
64616;BME280;51027;42.162;24.754;2023-05-07T08:27:29;100054.56;;;21.71;65.83
64616;BME280;51027;42.162;24.754;2023-05-07T08:29:54;100049.94;;;21.73;62.04
64616;BME280;51027;42.162;24.754;2023-05-07T08:32:20;100051.13;;;22.02;59.96
64616;BME280;51027;42.162;24.754;2023-05-07T08:34:47;100043.38;;;21.77;60.31
64616;BME280;51027;42.162;24.754;2023-05-07T08:37:12;100019.44;;;21.85;61.17
64616;BME280;51027;42.162;24.754;2023-05-07T08:39:38;100036.63;;;21.94;61.39
64616;BME280;51027;42.162;24.754;2023-05-07T08:42:04;100045.06;;;22.11;60.67
64616;BME280;51027;42.162;24.754;2023-05-07T08:44:33;100042.09;;;22.26;62.15
64616;BME280;51027;42.162;24.754;2023-05-07T08:47:02;100041.34;;;22.24;61.44
64616;BME280;51027;42.162;24.754;2023-05-07T08:49:28;100026.56;;;22.40;60.21
64616;BME280;51027;42.162;24.754;2023-05-07T08:51:54;100042.44;;;22.32;61.14
64616;BME280;51027;42.162;24.754;2023-05-07T08:54:21;100035.69;;;22.49;58.76
64616;BME280;51027;42.162;24.754;2023-05-07T08:56:46;100029.78;;;22.55;58.82
64616;BME280;51027;42.162;24.754;2023-05-07T08:59:12;100026.28;;;22.76;57.72
64616;BME280;51027;42.162;24.754;2023-05-07T09:01:38;100026.28;;;22.76;58.46
64616;BME280;51027;42.162;24.754;2023-05-07T09:04:04;100026.63;;;22.82;58.25
64616;BME280;51027;42.162;24.754;2023-05-07T09:06:30;100029.13;;;22.95;56.52
64616;BME280;51027;42.162;24.754;2023-05-07T09:08:56;100022.06;;;23.15;57.34
64616;BME280;51027;42.162;24.754;2023-05-07T09:11:23;100030.31;;;23.02;55.36
64616;BME280;51027;42.162;24.754;2023-05-07T09:13:56;100028.16;;;23.17;53.75
64616;BME280;51027;42.162;24.754;2023-05-07T09:16:23;100036.34;;;23.15;53.62
64616;BME280;51027;42.162;24.754;2023-05-07T09:18:51;100027.84;;;23.10;53.65
64616;BME280;51027;42.162;24.754;2023-05-07T09:21:18;100019.78;;;22.89;54.35
64616;BME280;51027;42.162;24.754;2023-05-07T09:23:44;100025.94;;;23.01;54.50
64616;BME280;51027;42.162;24.754;2023-05-07T09:26:10;100021.16;;;22.84;53.72
64616;BME280;51027;42.162;24.754;2023-05-07T09:28:41;100018.13;;;22.98;49.75
64616;BME280;51027;42.162;24.754;2023-05-07T09:31:07;100014.06;;;23.24;49.83
64616;BME280;51027;42.162;24.754;2023-05-07T09:33:33;100010.19;;;23.48;49.01
64616;BME280;51027;42.162;24.754;2023-05-07T09:36:02;100015.56;;;23.48;47.71
64616;BME280;51027;42.162;24.754;2023-05-07T09:38:28;100005.06;;;23.35;49.45
64616;BME280;51027;42.162;24.754;2023-05-07T09:43:32;100001.22;;;23.07;47.30
64616;BME280;51027;42.162;24.754;2023-05-07T09:45:59;99996.19;;;22.93;48.63
64616;BME280;51027;42.162;24.754;2023-05-07T09:48:29;100001.38;;;23.36;48.51
64616;BME280;51027;42.162;24.754;2023-05-07T09:50:55;100009.09;;;23.20;48.74
64616;BME280;51027;42.162;24.754;2023-05-07T09:53:24;99997.28;;;23.32;48.05
64616;BME280;51027;42.162;24.754;2023-05-07T09:55:52;99991.50;;;23.16;47.69
64616;BME280;51027;42.162;24.754;2023-05-07T09:58:18;99981.94;;;23.23;47.79
64616;BME280;51027;42.162;24.754;2023-05-07T10:00:45;99973.50;;;23.37;47.58
64616;BME280;51027;42.162;24.754;2023-05-07T10:03:11;99976.91;;;23.09;48.80
64616;BME280;51027;42.162;24.754;2023-05-07T10:05:37;99974.34;;;23.07;49.70
64616;BME280;51027;42.162;24.754;2023-05-07T10:08:04;99985.19;;;23.26;48.51
64616;BME280;51027;42.162;24.754;2023-05-07T10:10:33;99981.66;;;23.56;49.49
64616;BME280;51027;42.162;24.754;2023-05-07T10:12:58;99979.56;;;23.60;48.49
64616;BME280;51027;42.162;24.754;2023-05-07T10:15:24;99961.91;;;23.67;48.27
64616;BME280;51027;42.162;24.754;2023-05-07T10:17:51;99972.16;;;23.83;48.18
64616;BME280;51027;42.162;24.754;2023-05-07T10:20:18;99965.72;;;23.65;48.17
64616;BME280;51027;42.162;24.754;2023-05-07T10:22:46;99958.41;;;23.86;48.68
64616;BME280;51027;42.162;24.754;2023-05-07T10:25:20;99961.97;;;23.87;47.39
64616;BME280;51027;42.162;24.754;2023-05-07T10:27:46;99959.44;;;24.04;47.94
64616;BME280;51027;42.162;24.754;2023-05-07T10:33:09;99942.44;;;24.04;46.96
64616;BME280;51027;42.162;24.754;2023-05-07T10:35:41;99926.25;;;23.75;46.71
64616;BME280;51027;42.162;24.754;2023-05-07T10:38:08;99937.59;;;23.88;46.41
64616;BME280;51027;42.162;24.754;2023-05-07T10:40:34;99927.13;;;23.85;47.15
64616;BME280;51027;42.162;24.754;2023-05-07T10:43:01;99934.38;;;23.94;45.54
64616;BME280;51027;42.162;24.754;2023-05-07T10:45:28;99928.72;;;24.26;45.15
64616;BME280;51027;42.162;24.754;2023-05-07T10:48:13;99927.16;;;24.14;44.77
64616;BME280;51027;42.162;24.754;2023-05-07T10:50:41;99934.13;;;24.46;45.48
64616;BME280;51027;42.162;24.754;2023-05-07T10:55:41;99923.78;;;24.12;43.89
64616;BME280;51027;42.162;24.754;2023-05-07T10:58:26;99914.09;;;24.00;43.48
64616;BME280;51027;42.162;24.754;2023-05-07T11:00:59;99924.34;;;24.45;46.68
64616;BME280;51027;42.162;24.754;2023-05-07T11:03:26;99921.97;;;24.32;43.93
64616;BME280;51027;42.162;24.754;2023-05-07T11:06:11;99906.22;;;24.37;42.78
64616;BME280;51027;42.162;24.754;2023-05-07T11:11:18;99914.13;;;24.58;43.26
64616;BME280;51027;42.162;24.754;2023-05-07T11:13:46;99908.75;;;24.38;43.19
64616;BME280;51027;42.162;24.754;2023-05-07T11:16:21;99909.59;;;24.58;42.69
64616;BME280;51027;42.162;24.754;2023-05-07T11:18:52;99906.47;;;24.63;43.07
64616;BME280;51027;42.162;24.754;2023-05-07T11:21:40;99885.13;;;24.32;42.44
64616;BME280;51027;42.162;24.754;2023-05-07T11:24:10;99910.03;;;24.54;43.17
64616;BME280;51027;42.162;24.754;2023-05-07T11:26:45;99905.56;;;24.72;42.39
64616;BME280;51027;42.162;24.754;2023-05-07T11:29:12;99894.44;;;24.57;41.04
64616;BME280;51027;42.162;24.754;2023-05-07T11:31:38;99902.69;;;24.93;41.41
64616;BME280;51027;42.162;24.754;2023-05-07T11:34:04;99890.75;;;25.15;41.31
64616;BME280;51027;42.162;24.754;2023-05-07T11:36:31;99888.22;;;24.37;40.92
64616;BME280;51027;42.162;24.754;2023-05-07T11:38:57;99892.03;;;25.11;42.46
64616;BME280;51027;42.162;24.754;2023-05-07T11:41:22;99889.31;;;25.11;40.36
64616;BME280;51027;42.162;24.754;2023-05-07T11:43:59;99884.94;;;25.00;41.10
64616;BME280;51027;42.162;24.754;2023-05-07T11:46:25;99890.03;;;25.40;39.75
64616;BME280;51027;42.162;24.754;2023-05-07T11:48:51;99874.56;;;25.42;40.48
64616;BME280;51027;42.162;24.754;2023-05-07T11:51:21;99890.13;;;25.48;40.15
64616;BME280;51027;42.162;24.754;2023-05-07T11:53:47;99893.47;;;25.60;41.18
64616;BME280;51027;42.162;24.754;2023-05-07T11:56:15;99897.03;;;25.06;40.49
64616;BME280;51027;42.162;24.754;2023-05-07T11:58:42;99873.97;;;25.48;40.69
64616;BME280;51027;42.162;24.754;2023-05-07T12:01:09;99874.66;;;25.50;40.64
64616;BME280;51027;42.162;24.754;2023-05-07T12:03:45;99884.25;;;25.35;41.24
64616;BME280;51027;42.162;24.754;2023-05-07T12:06:12;99862.97;;;25.05;40.29
64616;BME280;51027;42.162;24.754;2023-05-07T12:08:42;99879.00;;;25.34;41.15
64616;BME280;51027;42.162;24.754;2023-05-07T12:11:41;99871.78;;;25.52;39.83
64616;BME280;51027;42.162;24.754;2023-05-07T12:14:00;99868.09;;;25.53;38.71
64616;BME280;51027;42.162;24.754;2023-05-07T12:16:26;99876.13;;;25.63;39.60
64616;BME280;51027;42.162;24.754;2023-05-07T12:18:52;99876.91;;;24.81;41.24
64616;BME280;51027;42.162;24.754;2023-05-07T12:21:20;99872.19;;;25.02;41.07
64616;BME280;51027;42.162;24.754;2023-05-07T12:23:45;99872.44;;;24.62;41.60
64616;BME280;51027;42.162;24.754;2023-05-07T12:26:11;99848.41;;;24.12;42.43
64616;BME280;51027;42.162;24.754;2023-05-07T12:28:38;99863.72;;;24.11;42.52
64616;BME280;51027;42.162;24.754;2023-05-07T12:31:04;99862.00;;;23.91;43.80
64616;BME280;51027;42.162;24.754;2023-05-07T12:33:30;99853.06;;;24.20;41.64
64616;BME280;51027;42.162;24.754;2023-05-07T12:35:58;99850.00;;;24.71;41.21
64616;BME280;51027;42.162;24.754;2023-05-07T12:38:23;99845.75;;;24.78;41.37
64616;BME280;51027;42.162;24.754;2023-05-07T12:40:54;99838.88;;;24.93;41.27
64616;BME280;51027;42.162;24.754;2023-05-07T12:43:29;99838.59;;;24.96;40.25
64616;BME280;51027;42.162;24.754;2023-05-07T12:45:56;99845.78;;;25.33;40.61